createdAt,value
2022-12-01T00:00:48.926Z,99359.38
2022-12-01T00:03:15.656Z,99352.78
2022-12-01T00:05:41.855Z,99352.34
2022-12-01T00:08:08.025Z,99353.63
2022-12-01T00:10:34.158Z,99345.22
2022-12-01T00:13:00.239Z,99347.13
2022-12-01T00:15:26.331Z,99353.94
2022-12-01T00:17:52.436Z,99348.28
2022-12-01T00:20:18.538Z,99351.50
2022-12-01T00:22:44.619Z,99350.25
2022-12-01T00:25:10.723Z,99345.41
2022-12-01T00:27:36.841Z,99344.94
2022-12-01T00:30:02.948Z,99350.03
2022-12-01T00:32:29.065Z,99350.25
2022-12-01T00:34:55.150Z,99342.69
2022-12-01T00:37:21.231Z,99351.31
2022-12-01T00:39:47.704Z,99350.78
2022-12-01T00:42:14.108Z,99347.75
2022-12-01T00:44:40.207Z,99345.03
2022-12-01T00:47:06.321Z,99351.94
2022-12-01T00:49:32.408Z,99345.88
2022-12-01T00:51:58.524Z,99352.78
2022-12-01T00:54:24.645Z,99348.38
2022-12-01T00:56:50.736Z,99361.38
2022-12-01T00:59:16.837Z,99360.75
2022-12-01T01:01:42.999Z,99355.41
2022-12-01T01:04:09.143Z,99363.69
2022-12-01T01:06:35.251Z,99361.16
2022-12-01T01:09:01.446Z,99361.47
2022-12-01T01:11:27.537Z,99366.41
2022-12-01T01:13:53.634Z,99364.97
2022-12-01T01:16:19.825Z,99370.41
2022-12-01T01:18:45.946Z,99371.56
2022-12-01T01:21:12.045Z,99368.41
2022-12-01T01:23:38.149Z,99368.81
2022-12-01T01:26:04.252Z,99362.66
2022-12-01T01:28:30.338Z,99369.25
2022-12-01T01:30:56.508Z,99380.06
2022-12-01T01:33:22.643Z,99380.34
2022-12-01T01:35:48.724Z,99381.19
2022-12-01T01:38:14.840Z,99383.94
2022-12-01T01:40:40.960Z,99382.47
2022-12-01T01:43:07.060Z,99389.28
2022-12-01T01:45:33.158Z,99382.47
2022-12-01T01:47:59.255Z,99382.75
2022-12-01T01:50:25.349Z,99383.81
2022-12-01T01:52:51.465Z,99382.38
2022-12-01T01:55:17.566Z,99384.47
2022-12-01T01:57:43.650Z,99383.28
2022-12-01T02:00:09.803Z,99385.47
2022-12-01T02:02:35.959Z,99384.25
2022-12-01T02:05:02.105Z,99381.09
2022-12-01T02:07:28.718Z,99383.94
2022-12-01T02:09:54.865Z,99382.16
2022-12-01T02:12:20.960Z,99376.06
2022-12-01T02:14:47.109Z,99381.94
2022-12-01T02:17:13.207Z,99378.69
2022-12-01T02:19:39.287Z,99387.41
2022-12-01T02:22:05.383Z,99388.94
2022-12-01T02:24:31.467Z,99379.41
2022-12-01T02:26:57.569Z,99378.88
2022-12-01T02:29:23.680Z,99372.06
2022-12-01T02:31:49.796Z,99375.72
2022-12-01T02:34:15.882Z,99375.84
2022-12-01T02:36:41.988Z,99375.03
2022-12-01T02:39:08.082Z,99371.56
2022-12-01T02:41:34.230Z,99376.91
2022-12-01T02:44:00.357Z,99375.13
2022-12-01T02:46:26.520Z,99367.66
2022-12-01T02:48:52.625Z,99375.25
2022-12-01T02:51:18.740Z,99376.16
2022-12-01T02:53:44.823Z,99380.66
2022-12-01T02:56:10.916Z,99384.31
2022-12-01T02:58:37.041Z,99382.13
2022-12-01T03:01:03.227Z,99380.66
2022-12-01T03:03:29.402Z,99381.19
2022-12-01T03:05:55.858Z,99371.44
2022-12-01T03:08:21.938Z,99377.22
2022-12-01T03:10:48.027Z,99379.53
2022-12-01T03:13:14.157Z,99376.69
2022-12-01T03:15:40.296Z,99379.91
2022-12-01T03:18:06.394Z,99380.66
2022-12-01T03:20:32.517Z,99381.72
2022-12-01T03:22:58.616Z,99378.75
2022-12-01T03:25:24.714Z,99380.66
2022-12-01T03:28:19.821Z,99378.34
2022-12-01T03:30:36.878Z,99375.50
2022-12-01T03:33:02.989Z,99378.34
2022-12-01T03:35:29.084Z,99371.75
2022-12-01T03:37:55.185Z,99370.88
2022-12-01T03:40:21.296Z,99380.00
2022-12-01T03:42:47.380Z,99368.25
2022-12-01T03:45:13.484Z,99371.72
2022-12-01T03:47:39.608Z,99365.13
2022-12-01T03:50:05.708Z,99368.78
2022-12-01T03:52:31.808Z,99372.72
2022-12-01T03:54:57.947Z,99374.53
2022-12-01T03:57:24.037Z,99382.50
2022-12-01T03:59:50.404Z,99377.59
2022-12-01T04:02:16.825Z,99371.59
2022-12-01T04:04:42.921Z,99376.03
2022-12-01T04:07:09.018Z,99374.84
2022-12-01T04:09:35.405Z,99375.59
2022-12-01T04:12:01.512Z,99371.44
2022-12-01T04:14:27.604Z,99374.16
2022-12-01T04:16:53.736Z,99377.41
2022-12-01T04:19:19.823Z,99373.03
2022-12-01T04:21:45.919Z,99376.78
2022-12-01T04:24:12.080Z,99370.34
2022-12-01T04:26:38.176Z,99372.88
2022-12-01T04:29:04.271Z,99375.38
2022-12-01T04:31:30.474Z,99377.38
2022-12-01T04:33:56.612Z,99371.09
2022-12-01T04:36:22.713Z,99369.38
2022-12-01T04:38:48.836Z,99371.94
2022-12-01T04:41:14.936Z,99377.53
2022-12-01T04:43:41.030Z,99376.47
2022-12-01T04:46:07.256Z,99378.94
2022-12-01T04:48:33.391Z,99381.88
2022-12-01T04:50:59.488Z,99374.75
2022-12-01T04:53:25.615Z,99371.38
2022-12-01T04:55:51.705Z,99378.22
2022-12-01T04:58:17.804Z,99369.63
2022-12-01T05:00:43.972Z,99367.41
2022-12-01T05:03:14.889Z,99372.81
2022-12-01T05:05:41.363Z,99375.44
2022-12-01T05:08:07.983Z,99379.88
2022-12-01T05:10:34.111Z,99378.13
2022-12-01T05:13:00.205Z,99378.94
2022-12-01T05:15:26.369Z,99376.63
2022-12-01T05:17:52.461Z,99377.13
2022-12-01T05:20:18.548Z,99380.91
2022-12-01T05:23:04.767Z,99381.25
2022-12-01T05:25:30.788Z,99385.63
2022-12-01T05:27:57.184Z,99377.13
2022-12-01T05:30:28.320Z,99387.94
2022-12-01T05:32:54.763Z,99382.25
2022-12-01T05:35:20.884Z,99389.63
2022-12-01T05:37:46.967Z,99384.84
2022-12-01T05:40:13.055Z,99378.94
2022-12-01T05:42:39.168Z,99386.22
2022-12-01T05:45:05.262Z,99374.38
2022-12-01T05:47:31.380Z,99380.69
2022-12-01T05:50:02.236Z,99380.50
2022-12-01T05:52:31.458Z,99380.00
2022-12-01T05:54:57.570Z,99386.91
2022-12-01T05:57:23.689Z,99386.09
2022-12-01T05:59:49.933Z,99383.88
2022-12-01T06:02:16.229Z,99392.13
2022-12-01T06:04:42.368Z,99383.66
2022-12-01T06:07:08.451Z,99384.09
2022-12-01T06:09:34.543Z,99388.00
2022-12-01T06:12:00.941Z,99385.59
2022-12-01T06:14:27.053Z,99390.28
2022-12-01T06:16:53.214Z,99393.88
2022-12-01T06:19:19.339Z,99387.63
2022-12-01T06:21:45.447Z,99386.19
2022-12-01T06:24:11.532Z,99393.31
2022-12-01T06:26:37.667Z,99387.47
2022-12-01T06:29:03.773Z,99406.84
2022-12-01T06:31:29.933Z,99388.66
2022-12-01T06:33:56.080Z,99399.13
2022-12-01T06:36:22.176Z,99390.59
2022-12-01T06:38:48.272Z,99397.16
2022-12-01T06:41:14.368Z,99407.44
2022-12-01T06:43:40.465Z,99399.78
2022-12-01T06:46:06.655Z,99403.03
2022-12-01T06:48:32.839Z,99391.50
2022-12-01T06:50:58.942Z,99398.25
2022-12-01T06:53:25.109Z,99396.75
2022-12-01T06:55:51.226Z,99406.34
2022-12-01T06:58:17.456Z,99410.16
2022-12-01T07:00:46.437Z,99411.63
2022-12-01T07:03:16.640Z,99418.66
2022-12-01T07:05:42.732Z,99421.78
2022-12-01T07:08:08.856Z,99417.81
2022-12-01T07:10:35.039Z,99419.25
2022-12-01T07:13:01.138Z,99423.66
2022-12-01T07:15:27.241Z,99425.50
2022-12-01T07:17:53.394Z,99420.31
2022-12-01T07:20:19.488Z,99418.59
2022-12-01T07:22:45.595Z,99426.56
2022-12-01T07:25:11.728Z,99429.00
2022-12-01T07:27:37.863Z,99427.22
2022-12-01T07:30:03.947Z,99438.16
2022-12-01T07:32:30.404Z,99431.38
2022-12-01T07:34:56.602Z,99432.28
2022-12-01T07:37:22.746Z,99438.06
2022-12-01T07:39:49.031Z,99435.69
2022-12-01T07:42:15.373Z,99430.41
2022-12-01T07:44:41.451Z,99436.94
2022-12-01T07:47:07.570Z,99433.13
2022-12-01T07:49:33.669Z,99432.66
2022-12-01T07:51:59.776Z,99430.25
2022-12-01T07:54:25.887Z,99429.34
2022-12-01T07:56:51.990Z,99434.53
2022-12-01T07:59:18.116Z,99441.28
2022-12-01T08:01:44.882Z,99439.59
2022-12-01T08:04:11.179Z,99441.19
2022-12-01T08:06:37.282Z,99432.09
2022-12-01T08:09:03.399Z,99432.78
2022-12-01T08:11:29.505Z,99439.44
2022-12-01T08:13:55.595Z,99440.09
2022-12-01T08:16:22.246Z,99445.34
2022-12-01T08:18:48.347Z,99444.38
2022-12-01T08:21:14.433Z,99453.25
2022-12-01T08:23:40.533Z,99448.13
2022-12-01T08:26:06.619Z,99450.47
2022-12-01T08:28:32.703Z,99454.03
2022-12-01T08:30:58.882Z,99465.25
2022-12-01T08:33:25.084Z,99465.41
2022-12-01T08:35:51.204Z,99469.44
2022-12-01T08:38:17.320Z,99458.81
2022-12-01T08:40:43.500Z,99465.06
2022-12-01T08:43:15.154Z,99470.28
2022-12-01T08:45:49.153Z,99478.56
2022-12-01T08:48:15.281Z,99468.19
2022-12-01T08:50:41.375Z,99469.38
2022-12-01T08:53:07.489Z,99467.28
2022-12-01T08:55:33.590Z,99466.91
2022-12-01T08:57:59.737Z,99466.91
2022-12-01T09:00:25.850Z,99466.63
2022-12-01T09:02:51.977Z,99469.00
2022-12-01T09:05:18.111Z,99474.53
2022-12-01T09:07:44.287Z,99473.38
2022-12-01T09:10:10.435Z,99466.72
2022-12-01T09:12:36.528Z,99472.88
2022-12-01T09:15:02.683Z,99471.38
2022-12-01T09:17:28.851Z,99475.94
2022-12-01T09:19:54.941Z,99471.75
2022-12-01T09:22:21.330Z,99480.34
2022-12-01T09:24:47.417Z,99474.63
2022-12-01T09:27:13.499Z,99479.06
2022-12-01T09:29:39.645Z,99473.97
2022-12-01T09:32:05.739Z,99485.91
2022-12-01T09:34:31.845Z,99481.28
2022-12-01T09:36:57.980Z,99478.16
2022-12-01T09:39:24.141Z,99477.47
2022-12-01T09:41:50.247Z,99474.19
2022-12-01T09:44:16.398Z,99481.97
2022-12-01T09:46:42.540Z,99479.81
2022-12-01T09:49:08.691Z,99473.59
2022-12-01T09:51:34.840Z,99476.34
2022-12-01T09:54:00.971Z,99478.59
2022-12-01T09:56:27.053Z,99486.25
2022-12-01T09:58:53.171Z,99478.66
2022-12-01T10:01:24.464Z,99473.97
2022-12-01T10:03:53.151Z,99472.31
2022-12-01T10:06:27.214Z,99458.47
2022-12-01T10:08:54.054Z,99468.53
2022-12-01T10:11:20.187Z,99461.88
2022-12-01T10:13:46.279Z,99463.38
2022-12-01T10:16:12.431Z,99462.88
2022-12-01T10:18:38.580Z,99458.06
2022-12-01T10:21:04.679Z,99466.88
2022-12-01T10:23:30.771Z,99455.88
2022-12-01T10:25:56.943Z,99459.16
2022-12-01T10:28:23.081Z,99458.88
2022-12-01T10:30:49.163Z,99455.31
2022-12-01T10:33:15.285Z,99447.56
2022-12-01T10:35:41.389Z,99448.25
2022-12-01T10:38:07.502Z,99448.22
2022-12-01T10:40:33.617Z,99454.91
2022-12-01T10:42:59.699Z,99443.06
2022-12-01T10:45:25.792Z,99446.59
2022-12-01T10:47:57.537Z,99451.66
2022-12-01T10:50:23.788Z,99455.84
2022-12-01T10:52:49.996Z,99447.09
2022-12-01T10:55:16.112Z,99440.66
2022-12-01T10:57:42.207Z,99444.13
2022-12-01T11:00:08.300Z,99439.31
2022-12-01T11:02:34.592Z,99442.47
2022-12-01T11:05:00.817Z,99441.41
2022-12-01T11:07:26.938Z,99444.03
2022-12-01T11:09:53.105Z,99439.22
2022-12-01T11:12:19.188Z,99445.81
2022-12-01T11:14:45.289Z,99436.47
2022-12-01T11:17:11.409Z,99440.78
2022-12-01T11:19:37.595Z,99435.06
2022-12-01T11:22:03.710Z,99443.91
2022-12-01T11:24:30.349Z,99443.50
2022-12-01T11:26:56.465Z,99427.59
2022-12-01T11:29:22.555Z,99432.53
2022-12-01T11:31:48.702Z,99437.97
2022-12-01T11:34:14.912Z,99438.91
2022-12-01T11:36:41.001Z,99434.72
2022-12-01T11:39:07.115Z,99434.91
2022-12-01T11:41:33.220Z,99429.47
2022-12-01T11:44:01.747Z,99435.13
2022-12-01T11:46:28.816Z,99428.50
2022-12-01T11:48:54.920Z,99433.84
2022-12-01T11:51:21.007Z,99431.88
2022-12-01T11:53:47.111Z,99431.34
2022-12-01T11:56:13.190Z,99427.25
2022-12-01T11:58:39.315Z,99422.34
2022-12-01T12:01:05.483Z,99421.59
2022-12-01T12:03:31.665Z,99428.19
2022-12-01T12:06:17.813Z,99431.13
2022-12-01T12:08:43.933Z,99422.53
2022-12-01T12:11:10.142Z,99423.25
2022-12-01T12:13:36.288Z,99421.56
2022-12-01T12:16:02.484Z,99419.97
2022-12-01T12:18:28.575Z,99420.72
2022-12-01T12:20:54.667Z,99418.63
2022-12-01T12:23:20.767Z,99416.44
2022-12-01T12:25:46.857Z,99412.78
2022-12-01T12:28:12.951Z,99419.72
2022-12-01T12:30:39.076Z,99415.41
2022-12-01T12:33:05.219Z,99416.53
2022-12-01T12:35:31.333Z,99413.63
2022-12-01T12:37:57.488Z,99411.53
2022-12-01T12:40:23.580Z,99405.97
2022-12-01T12:42:49.663Z,99410.28
2022-12-01T12:45:15.781Z,99412.13
2022-12-01T12:47:41.877Z,99411.16
2022-12-01T12:50:07.981Z,99405.00
2022-12-01T12:52:34.567Z,99411.69
2022-12-01T12:55:00.707Z,99404.78
2022-12-01T12:57:26.820Z,99413.91
2022-12-01T12:59:52.933Z,99399.84
2022-12-01T13:02:19.061Z,99409.63
2022-12-01T13:04:45.176Z,99398.59
2022-12-01T13:07:11.297Z,99402.91
2022-12-01T13:09:37.378Z,99397.63
2022-12-01T13:12:03.461Z,99398.19
2022-12-01T13:14:29.564Z,99390.34
2022-12-01T13:16:55.661Z,99392.50
2022-12-01T13:19:21.741Z,99383.69
2022-12-01T13:21:47.905Z,99387.09
2022-12-01T13:24:16.287Z,99379.78
2022-12-01T13:26:46.017Z,99379.47
2022-12-01T13:29:12.605Z,99380.00
2022-12-01T13:31:38.738Z,99376.13
2022-12-01T13:34:04.886Z,99364.97
2022-12-01T13:36:46.276Z,99374.41
2022-12-01T13:39:12.695Z,99375.53
2022-12-01T13:41:39.267Z,99374.75
2022-12-01T13:44:05.499Z,99372.44
2022-12-01T13:46:31.670Z,99377.22
2022-12-01T13:48:57.821Z,99366.19
2022-12-01T13:51:23.905Z,99365.03
2022-12-01T13:53:50.004Z,99367.94
2022-12-01T13:56:16.412Z,99365.84
2022-12-01T13:58:42.499Z,99369.94
2022-12-01T14:01:11.313Z,99374.44
2022-12-01T14:03:37.780Z,99369.13
2022-12-01T14:06:03.936Z,99369.06
2022-12-01T14:08:30.021Z,99374.78
2022-12-01T14:10:56.164Z,99364.06
2022-12-01T14:13:22.258Z,99380.81
2022-12-01T14:15:48.400Z,99382.31
2022-12-01T14:18:14.568Z,99377.91
2022-12-01T14:20:40.668Z,99384.28
2022-12-01T14:23:06.761Z,99375.72
2022-12-01T14:25:32.864Z,99382.00
2022-12-01T14:27:58.965Z,99375.69
2022-12-01T14:30:25.073Z,99378.94
2022-12-01T14:32:51.680Z,99369.94
2022-12-01T14:35:17.777Z,99361.53
2022-12-01T14:37:43.895Z,99367.41
2022-12-01T14:40:10.037Z,99362.03
2022-12-01T14:42:36.139Z,99370.19
2022-12-01T14:45:02.317Z,99364.97
2022-12-01T14:47:28.452Z,99369.91
2022-12-01T14:49:54.540Z,99359.31
2022-12-01T14:52:20.682Z,99367.34
2022-12-01T14:54:47.128Z,99365.88
2022-12-01T14:57:16.745Z,99370.91
2022-12-01T14:59:43.416Z,99367.03
2022-12-01T15:02:09.670Z,99375.50
2022-12-01T15:04:35.897Z,99372.88
2022-12-01T15:07:01.999Z,99374.88
2022-12-01T15:09:35.851Z,99377.88
2022-12-01T15:12:02.349Z,99373.50
2022-12-01T15:14:28.467Z,99374.84
2022-12-01T15:16:54.623Z,99375.44
2022-12-01T15:19:20.840Z,99385.06
2022-12-01T15:21:46.920Z,99390.31
2022-12-01T15:24:13.037Z,99386.00
2022-12-01T15:26:39.157Z,99386.19
2022-12-01T15:29:05.249Z,99388.91
2022-12-01T15:31:31.395Z,99385.25
2022-12-01T15:33:57.685Z,99388.34
2022-12-01T15:36:23.788Z,99397.03
2022-12-01T15:38:49.904Z,99395.25
2022-12-01T15:41:31.483Z,99395.47
2022-12-01T15:43:57.718Z,99397.28
2022-12-01T15:46:23.836Z,99396.22
2022-12-01T15:48:49.970Z,99390.16
2022-12-01T15:51:16.076Z,99398.22
2022-12-01T15:53:42.177Z,99391.09
2022-12-01T15:56:08.288Z,99388.47
2022-12-01T15:58:34.643Z,99394.03
2022-12-01T16:01:00.753Z,99394.03
2022-12-01T16:03:26.873Z,99399.53
2022-12-01T16:05:52.985Z,99386.75
2022-12-01T16:08:19.154Z,99392.25
2022-12-01T16:10:45.326Z,99385.69
2022-12-01T16:13:11.465Z,99389.53
2022-12-01T16:15:37.553Z,99393.09
2022-12-01T16:18:03.635Z,99395.03
2022-12-01T16:20:29.768Z,99376.09
2022-12-01T16:22:55.869Z,99386.75
2022-12-01T16:25:21.978Z,99378.78
2022-12-01T16:27:48.153Z,99382.34
2022-12-01T16:30:14.263Z,99379.94
2022-12-01T16:32:40.361Z,99370.94
2022-12-01T16:35:06.459Z,99369.00
2022-12-01T16:37:32.551Z,99375.06
2022-12-01T16:39:58.646Z,99370.88
2022-12-01T16:42:25.243Z,99373.41
2022-12-01T16:44:51.585Z,99378.63
2022-12-01T16:47:17.946Z,99378.25
2022-12-01T16:49:44.063Z,99382.63
2022-12-01T16:52:36.517Z,99384.41
2022-12-01T16:54:56.232Z,99396.81
2022-12-01T16:57:22.336Z,99386.63
2022-12-01T16:59:48.419Z,99388.81
2022-12-01T17:02:15.079Z,99399.28
2022-12-01T17:04:41.204Z,99392.34
2022-12-01T17:07:07.307Z,99391.50
2022-12-01T17:09:33.404Z,99390.38
2022-12-01T17:11:59.496Z,99395.69
2022-12-01T17:14:25.589Z,99384.69
2022-12-01T17:16:51.705Z,99385.03
2022-12-01T17:19:18.229Z,99383.03
2022-12-01T17:21:44.328Z,99390.47
2022-12-01T17:24:10.433Z,99398.50
2022-12-01T17:26:36.510Z,99403.44
2022-12-01T17:29:02.595Z,99396.38
2022-12-01T17:31:28.794Z,99399.00
2022-12-01T17:33:54.930Z,99400.47
2022-12-01T17:36:21.022Z,99400.00
2022-12-01T17:38:47.133Z,99408.41
2022-12-01T17:41:13.248Z,99408.78
2022-12-01T17:43:39.334Z,99406.34
2022-12-01T17:46:05.652Z,99399.06
2022-12-01T17:48:31.794Z,99401.09
2022-12-01T17:50:57.884Z,99398.03
2022-12-01T17:53:24.001Z,99398.94
2022-12-01T17:55:50.087Z,99404.28
2022-12-01T17:58:16.166Z,99397.81
2022-12-01T18:00:42.294Z,99405.84
2022-12-01T18:03:08.382Z,99398.22
2022-12-01T18:05:34.554Z,99404.34
2022-12-01T18:08:00.980Z,99420.56
2022-12-01T18:10:27.154Z,99407.84
2022-12-01T18:12:53.250Z,99410.13
2022-12-01T18:15:19.371Z,99414.03
2022-12-01T18:17:45.470Z,99410.41
2022-12-01T18:20:11.560Z,99395.81
2022-12-01T18:22:37.677Z,99407.59
2022-12-01T18:25:03.765Z,99408.53
2022-12-01T18:27:29.856Z,99405.44
2022-12-01T18:29:55.955Z,99405.88
2022-12-01T18:32:22.040Z,99402.84
2022-12-01T18:34:48.566Z,99401.03
2022-12-01T18:37:14.983Z,99402.47
2022-12-01T18:39:41.093Z,99407.91
2022-12-01T18:42:07.182Z,99412.06
2022-12-01T18:44:33.794Z,99417.22
2022-12-01T18:46:59.930Z,99407.41
2022-12-01T18:49:26.044Z,99415.44
2022-12-01T18:51:52.146Z,99404.34
2022-12-01T18:54:18.242Z,99403.63
2022-12-01T18:56:44.328Z,99405.06
2022-12-01T18:59:10.440Z,99411.97
2022-12-01T19:01:36.618Z,99408.31
2022-12-01T19:04:02.787Z,99400.59
2022-12-01T19:06:28.878Z,99409.00
2022-12-01T19:08:55.025Z,99405.63
2022-12-01T19:11:21.123Z,99405.34
2022-12-01T19:13:47.736Z,99409.00
2022-12-01T19:16:13.864Z,99405.75
2022-12-01T19:18:39.996Z,99398.22
2022-12-01T19:21:06.127Z,99406.59
2022-12-01T19:23:32.223Z,99406.03
2022-12-01T19:25:58.304Z,99408.72
2022-12-01T19:28:24.414Z,99401.56
2022-12-01T19:30:50.508Z,99405.38
2022-12-01T19:33:16.613Z,99406.97
2022-12-01T19:35:42.752Z,99399.88
2022-12-01T19:38:08.845Z,99395.69
2022-12-01T19:40:34.938Z,99392.97
2022-12-01T19:43:01.046Z,99388.53
2022-12-01T19:45:27.146Z,99395.94
2022-12-01T19:47:53.317Z,99394.25
2022-12-01T19:50:19.418Z,99397.53
2022-12-01T19:52:45.527Z,99391.53
2022-12-01T19:55:11.631Z,99397.09
2022-12-01T19:57:37.734Z,99401.00
2022-12-01T20:00:03.836Z,99394.16
2022-12-01T20:02:29.995Z,99399.28
2022-12-01T20:04:56.131Z,99401.56
2022-12-01T20:07:22.269Z,99394.56
2022-12-01T20:09:50.035Z,99393.81
2022-12-01T20:12:16.487Z,99396.53
2022-12-01T20:14:42.652Z,99396.16
2022-12-01T20:17:12.880Z,99398.00
2022-12-01T20:19:41.721Z,99395.47
2022-12-01T20:22:07.813Z,99401.84
2022-12-01T20:24:33.918Z,99402.78
2022-12-01T20:27:00.113Z,99398.66
2022-12-01T20:29:26.236Z,99404.53
2022-12-01T20:31:52.418Z,99399.84
2022-12-01T20:34:20.477Z,99404.50
2022-12-01T20:36:46.564Z,99391.44
2022-12-01T20:39:12.655Z,99392.00
2022-12-01T20:41:38.823Z,99397.97
2022-12-01T20:44:07.558Z,99387.78
2022-12-01T20:46:34.000Z,99396.31
2022-12-01T20:49:00.110Z,99388.81
2022-12-01T20:51:26.209Z,99394.03
2022-12-01T20:54:19.755Z,99387.25
2022-12-01T20:56:38.382Z,99390.56
2022-12-01T20:59:04.468Z,99383.72
2022-12-01T21:01:30.572Z,99398.31
2022-12-01T21:03:56.728Z,99398.25
2022-12-01T21:06:22.819Z,99389.19
2022-12-01T21:08:48.896Z,99397.56
2022-12-01T21:11:15.012Z,99398.31
2022-12-01T21:13:41.092Z,99389.22
2022-12-01T21:16:13.643Z,99397.56
2022-12-01T21:18:40.743Z,99391.84
2022-12-01T21:21:06.854Z,99392.47
2022-12-01T21:23:32.956Z,99389.41
2022-12-01T21:25:59.072Z,99384.94
2022-12-01T21:28:25.162Z,99391.84
2022-12-01T21:30:51.335Z,99392.16
2022-12-01T21:33:17.496Z,99396.34
2022-12-01T21:35:43.591Z,99391.50
2022-12-01T21:38:09.693Z,99384.22
2022-12-01T21:40:35.836Z,99385.78
2022-12-01T21:43:01.937Z,99385.91
2022-12-01T21:45:28.032Z,99374.06
2022-12-01T21:47:54.172Z,99370.72
2022-12-01T21:50:20.282Z,99373.00
2022-12-01T21:52:46.374Z,99372.47
2022-12-01T21:55:12.492Z,99368.34
2022-12-01T21:57:42.376Z,99371.66
2022-12-01T22:00:08.985Z,99361.13
2022-12-01T22:02:35.170Z,99365.63
2022-12-01T22:05:01.301Z,99362.09
2022-12-01T22:07:27.418Z,99349.59
2022-12-01T22:09:53.545Z,99355.19
2022-12-01T22:12:19.652Z,99355.75
2022-12-01T22:14:45.739Z,99348.69
2022-12-01T22:17:11.844Z,99352.59
2022-12-01T22:19:37.955Z,99350.31
2022-12-01T22:22:04.035Z,99352.59
2022-12-01T22:24:30.204Z,99343.09
2022-12-01T22:26:56.301Z,99345.16
2022-12-01T22:29:22.408Z,99344.03
2022-12-01T22:31:48.524Z,99341.13
2022-12-01T22:34:14.633Z,99332.88
2022-12-01T22:36:40.728Z,99331.81
2022-12-01T22:39:06.849Z,99336.41
2022-12-01T22:41:32.930Z,99325.00
2022-12-01T22:43:59.029Z,99325.19
2022-12-01T22:46:25.191Z,99323.94
2022-12-01T22:48:51.311Z,99327.72
2022-12-01T22:51:17.404Z,99327.34
2022-12-01T22:53:44.036Z,99325.84
2022-12-01T22:56:10.132Z,99324.28
2022-12-01T22:58:36.227Z,99330.91
2022-12-01T23:01:02.346Z,99334.22
2022-12-01T23:03:28.449Z,99324.72
2022-12-01T23:05:54.545Z,99328.28
2022-12-01T23:08:20.676Z,99324.69
2022-12-01T23:10:46.768Z,99321.81
2022-12-01T23:13:12.870Z,99321.47
2022-12-01T23:15:39.087Z,99316.00
2022-12-01T23:18:05.237Z,99321.31
2022-12-01T23:20:31.328Z,99321.91
2022-12-01T23:22:57.442Z,99320.31
2022-12-01T23:25:23.566Z,99316.09
2022-12-01T23:27:49.651Z,99319.34
2022-12-01T23:30:15.765Z,99316.56
2022-12-01T23:32:41.853Z,99316.06
2022-12-01T23:35:07.955Z,99319.31
2022-12-01T23:37:34.085Z,99312.88
2022-12-01T23:40:00.188Z,99313.75
2022-12-01T23:42:26.273Z,99296.84
2022-12-01T23:44:52.622Z,99295.72
2022-12-01T23:47:18.965Z,99294.06
2022-12-01T23:49:45.064Z,99282.34
2022-12-01T23:52:11.174Z,99278.75
2022-12-01T23:54:37.269Z,99283.53
2022-12-01T23:57:03.369Z,99275.38
2022-12-01T23:59:29.505Z,99276.59
